sensor_id;sensor_type;location;lat;lon;timestamp;pressure;altitude;pressure_sealevel;temperature;humidity
18201;BME280;9226;47.858;9.594;2022-08-05T00:01:16;94908.69;;;25.17;47.24
18201;BME280;9226;47.858;9.594;2022-08-05T00:03:43;94907.66;;;25.18;47.17
18201;BME280;9226;47.858;9.594;2022-08-05T00:06:09;94911.66;;;25.16;47.04
18201;BME280;9226;47.858;9.594;2022-08-05T00:08:35;94914.81;;;25.13;47.48
18201;BME280;9226;47.858;9.594;2022-08-05T00:11:03;94908.34;;;25.14;47.09
18201;BME280;9226;47.858;9.594;2022-08-05T00:13:32;94912.94;;;25.13;48.19
18201;BME280;9226;47.858;9.594;2022-08-05T00:15:58;94913.19;;;25.12;47.36
18201;BME280;9226;47.858;9.594;2022-08-05T00:18:23;94907.13;;;25.09;47.79
18201;BME280;9226;47.858;9.594;2022-08-05T00:20:50;94910.91;;;25.08;47.33
18201;BME280;9226;47.858;9.594;2022-08-05T00:23:16;94905.94;;;25.05;47.55
18201;BME280;9226;47.858;9.594;2022-08-05T00:25:41;94901.78;;;25.03;47.87
18201;BME280;9226;47.858;9.594;2022-08-05T00:28:07;94907.44;;;25.01;47.46
18201;BME280;9226;47.858;9.594;2022-08-05T00:30:32;94906.03;;;24.99;47.79
18201;BME280;9226;47.858;9.594;2022-08-05T00:32:57;94906.84;;;24.99;47.44
18201;BME280;9226;47.858;9.594;2022-08-05T00:35:23;94912.50;;;24.98;47.85
18201;BME280;9226;47.858;9.594;2022-08-05T00:37:48;94905.81;;;25.00;47.36
18201;BME280;9226;47.858;9.594;2022-08-05T00:40:14;94899.06;;;25.03;47.32
18201;BME280;9226;47.858;9.594;2022-08-05T00:42:39;94905.34;;;25.03;47.74
18201;BME280;9226;47.858;9.594;2022-08-05T00:45:07;94908.66;;;25.05;47.66
18201;BME280;9226;47.858;9.594;2022-08-05T00:47:33;94904.28;;;25.04;47.95
18201;BME280;9226;47.858;9.594;2022-08-05T00:49:58;94904.50;;;25.03;48.55
18201;BME280;9226;47.858;9.594;2022-08-05T00:52:24;94914.31;;;25.04;48.98
18201;BME280;9226;47.858;9.594;2022-08-05T00:54:49;94911.00;;;25.02;48.76
18201;BME280;9226;47.858;9.594;2022-08-05T00:57:15;94919.38;;;25.00;49.15
18201;BME280;9226;47.858;9.594;2022-08-05T00:59:40;94917.72;;;24.99;49.18
18201;BME280;9226;47.858;9.594;2022-08-05T01:02:06;94919.75;;;25.04;49.15
18201;BME280;9226;47.858;9.594;2022-08-05T01:04:32;94924.50;;;25.08;49.15
18201;BME280;9226;47.858;9.594;2022-08-05T01:06:57;94921.09;;;25.13;49.22
18201;BME280;9226;47.858;9.594;2022-08-05T01:09:23;94923.34;;;25.16;49.20
18201;BME280;9226;47.858;9.594;2022-08-05T01:11:51;94918.06;;;25.21;49.20
18201;BME280;9226;47.858;9.594;2022-08-05T01:19:52;94926.34;;;25.26;49.54
18201;BME280;9226;47.858;9.594;2022-08-05T01:25:34;94935.94;;;25.29;50.02
18201;BME280;9226;47.858;9.594;2022-08-05T01:31:09;94939.31;;;25.43;49.25
18201;BME280;9226;47.858;9.594;2022-08-05T01:33:42;94938.00;;;25.45;49.87
18201;BME280;9226;47.858;9.594;2022-08-05T01:36:13;94940.50;;;25.47;49.22
18201;BME280;9226;47.858;9.594;2022-08-05T01:38:39;94942.63;;;25.45;49.54
18201;BME280;9226;47.858;9.594;2022-08-05T01:41:06;94938.94;;;25.39;50.06
18201;BME280;9226;47.858;9.594;2022-08-05T01:43:33;94931.31;;;25.48;49.78
18201;BME280;9226;47.858;9.594;2022-08-05T01:46:00;94933.09;;;25.54;49.38
18201;BME280;9226;47.858;9.594;2022-08-05T01:48:26;94932.88;;;25.56;49.39
18201;BME280;9226;47.858;9.594;2022-08-05T01:50:55;94937.69;;;25.54;49.61
18201;BME280;9226;47.858;9.594;2022-08-05T01:53:22;94948.31;;;25.55;49.51
18201;BME280;9226;47.858;9.594;2022-08-05T01:55:49;94943.50;;;25.57;49.78
18201;BME280;9226;47.858;9.594;2022-08-05T01:58:17;94950.09;;;25.50;50.05
18201;BME280;9226;47.858;9.594;2022-08-05T02:00:48;94965.00;;;25.59;49.45
18201;BME280;9226;47.858;9.594;2022-08-05T02:03:35;94965.00;;;25.59;50.04
18201;BME280;9226;47.858;9.594;2022-08-05T02:06:03;94980.47;;;25.58;49.98
18201;BME280;9226;47.858;9.594;2022-08-05T02:08:32;94979.03;;;25.56;50.09
18201;BME280;9226;47.858;9.594;2022-08-05T02:11:04;94985.06;;;25.58;50.31
18201;BME280;9226;47.858;9.594;2022-08-05T02:13:40;94997.97;;;25.62;50.19
18201;BME280;9226;47.858;9.594;2022-08-05T02:16:26;94997.22;;;25.55;50.74
18201;BME280;9226;47.858;9.594;2022-08-05T02:22:11;95001.16;;;25.71;50.68
18201;BME280;9226;47.858;9.594;2022-08-05T02:24:38;94994.81;;;25.77;50.11
18201;BME280;9226;47.858;9.594;2022-08-05T02:27:07;95002.28;;;25.82;50.24
18201;BME280;9226;47.858;9.594;2022-08-05T02:29:35;94995.22;;;25.81;49.96
18201;BME280;9226;47.858;9.594;2022-08-05T02:32:03;95003.19;;;25.76;50.61
18201;BME280;9226;47.858;9.594;2022-08-05T02:34:31;95003.53;;;25.68;50.50
18201;BME280;9226;47.858;9.594;2022-08-05T02:37:00;95006.59;;;25.41;51.14
18201;BME280;9226;47.858;9.594;2022-08-05T02:39:30;95003.78;;;25.10;52.24
18201;BME280;9226;47.858;9.594;2022-08-05T02:42:00;95011.78;;;24.87;52.41
18201;BME280;9226;47.858;9.594;2022-08-05T02:44:27;95008.88;;;24.63;53.27
18201;BME280;9226;47.858;9.594;2022-08-05T02:46:55;95014.31;;;24.06;55.15
18201;BME280;9226;47.858;9.594;2022-08-05T02:49:22;95025.94;;;23.75;56.42
18201;BME280;9226;47.858;9.594;2022-08-05T02:51:50;95022.84;;;23.71;56.06
18201;BME280;9226;47.858;9.594;2022-08-05T02:54:16;95023.75;;;23.58;56.65
18201;BME280;9226;47.858;9.594;2022-08-05T02:56:44;95027.34;;;23.52;56.49
18201;BME280;9226;47.858;9.594;2022-08-05T02:59:11;95028.59;;;23.49;56.42
18201;BME280;9226;47.858;9.594;2022-08-05T03:01:38;95023.75;;;23.58;55.98
18201;BME280;9226;47.858;9.594;2022-08-05T03:04:11;95021.84;;;23.65;56.35
18201;BME280;9226;47.858;9.594;2022-08-05T03:06:37;95018.63;;;23.82;55.49
18201;BME280;9226;47.858;9.594;2022-08-05T03:09:03;95016.50;;;23.97;55.09
18201;BME280;9226;47.858;9.594;2022-08-05T03:11:29;95006.56;;;24.10;54.89
18201;BME280;9226;47.858;9.594;2022-08-05T03:13:54;95008.75;;;24.26;53.97
18201;BME280;9226;47.858;9.594;2022-08-05T03:16:20;95005.94;;;24.39;53.58
18201;BME280;9226;47.858;9.594;2022-08-05T03:18:47;95009.34;;;24.53;53.33
18201;BME280;9226;47.858;9.594;2022-08-05T03:21:12;95002.91;;;24.54;53.90
18201;BME280;9226;47.858;9.594;2022-08-05T03:23:40;95005.47;;;24.43;54.30
18201;BME280;9226;47.858;9.594;2022-08-05T03:26:07;95008.97;;;24.50;53.67
18201;BME280;9226;47.858;9.594;2022-08-05T03:28:33;95014.22;;;24.45;54.30
18201;BME280;9226;47.858;9.594;2022-08-05T03:31:00;95013.41;;;24.44;54.81
18201;BME280;9226;47.858;9.594;2022-08-05T03:33:29;95030.22;;;24.53;54.27
18201;BME280;9226;47.858;9.594;2022-08-05T03:35:56;95037.94;;;24.56;54.18
18201;BME280;9226;47.858;9.594;2022-08-05T03:38:23;95022.09;;;24.53;54.09
18201;BME280;9226;47.858;9.594;2022-08-05T03:40:49;95032.66;;;24.36;55.08
18201;BME280;9226;47.858;9.594;2022-08-05T03:43:16;95032.00;;;24.41;55.13
18201;BME280;9226;47.858;9.594;2022-08-05T03:45:42;95039.25;;;24.47;55.26
18201;BME280;9226;47.858;9.594;2022-08-05T03:48:08;95035.53;;;24.41;54.89
18201;BME280;9226;47.858;9.594;2022-08-05T03:50:44;95028.56;;;24.27;56.15
18201;BME280;9226;47.858;9.594;2022-08-05T03:53:17;95032.03;;;24.09;56.77
18201;BME280;9226;47.858;9.594;2022-08-05T03:55:52;95026.50;;;24.22;56.47
18201;BME280;9226;47.858;9.594;2022-08-05T03:58:23;95024.41;;;24.24;56.17
18201;BME280;9226;47.858;9.594;2022-08-05T04:00:52;95027.75;;;24.26;55.64
18201;BME280;9226;47.858;9.594;2022-08-05T04:03:20;95015.22;;;24.25;56.43
18201;BME280;9226;47.858;9.594;2022-08-05T04:05:47;95000.56;;;24.33;55.74
18201;BME280;9226;47.858;9.594;2022-08-05T04:08:14;95015.56;;;24.35;56.07
18201;BME280;9226;47.858;9.594;2022-08-05T04:10:43;95016.19;;;24.37;56.55
18201;BME280;9226;47.858;9.594;2022-08-05T04:13:09;95017.19;;;24.43;56.03
18201;BME280;9226;47.858;9.594;2022-08-05T04:15:35;95023.06;;;24.33;56.87
18201;BME280;9226;47.858;9.594;2022-08-05T04:18:03;95027.31;;;24.29;56.58
18201;BME280;9226;47.858;9.594;2022-08-05T04:20:29;95015.59;;;24.29;56.37
18201;BME280;9226;47.858;9.594;2022-08-05T04:22:55;95018.75;;;24.26;56.63
18201;BME280;9226;47.858;9.594;2022-08-05T04:25:22;95009.66;;;24.45;55.83
18201;BME280;9226;47.858;9.594;2022-08-05T04:27:47;95024.56;;;24.61;55.60
18201;BME280;9226;47.858;9.594;2022-08-05T04:30:13;95018.84;;;24.69;55.75
18201;BME280;9226;47.858;9.594;2022-08-05T04:32:39;95019.00;;;24.74;55.94
18201;BME280;9226;47.858;9.594;2022-08-05T04:35:05;95011.63;;;24.82;55.52
18201;BME280;9226;47.858;9.594;2022-08-05T04:37:31;95011.28;;;24.71;55.87
18201;BME280;9226;47.858;9.594;2022-08-05T04:39:57;95017.09;;;24.56;56.48
18201;BME280;9226;47.858;9.594;2022-08-05T04:42:23;95024.41;;;24.74;55.83
18201;BME280;9226;47.858;9.594;2022-08-05T04:44:49;95040.03;;;24.79;55.25
18201;BME280;9226;47.858;9.594;2022-08-05T04:47:14;95037.81;;;24.69;55.37
18201;BME280;9226;47.858;9.594;2022-08-05T04:49:40;95038.69;;;24.38;56.87
18201;BME280;9226;47.858;9.594;2022-08-05T04:52:05;95040.22;;;24.52;55.64
18201;BME280;9226;47.858;9.594;2022-08-05T04:54:31;95034.38;;;24.62;55.53
18201;BME280;9226;47.858;9.594;2022-08-05T04:56:56;95033.88;;;24.65;55.95
18201;BME280;9226;47.858;9.594;2022-08-05T04:59:22;95026.16;;;24.69;56.07
18201;BME280;9226;47.858;9.594;2022-08-05T05:01:48;95023.59;;;24.74;56.17
18201;BME280;9226;47.858;9.594;2022-08-05T05:04:14;95020.81;;;24.62;56.84
18201;BME280;9226;47.858;9.594;2022-08-05T05:06:39;95030.06;;;24.73;56.28
18201;BME280;9226;47.858;9.594;2022-08-05T05:09:05;95034.81;;;24.78;55.99
18201;BME280;9226;47.858;9.594;2022-08-05T05:11:30;95054.00;;;24.83;55.77
18201;BME280;9226;47.858;9.594;2022-08-05T05:13:56;95052.91;;;24.84;55.37
18201;BME280;9226;47.858;9.594;2022-08-05T05:16:21;95051.63;;;24.68;56.64
18201;BME280;9226;47.858;9.594;2022-08-05T05:18:47;95052.13;;;24.58;57.14
18201;BME280;9226;47.858;9.594;2022-08-05T05:21:12;95040.53;;;24.69;56.60
18201;BME280;9226;47.858;9.594;2022-08-05T05:23:37;95034.38;;;24.81;57.25
18201;BME280;9226;47.858;9.594;2022-08-05T05:26:03;95033.03;;;24.90;57.10
18201;BME280;9226;47.858;9.594;2022-08-05T05:28:29;95040.28;;;24.96;57.11
18201;BME280;9226;47.858;9.594;2022-08-05T05:30:54;95040.22;;;25.03;57.29
18201;BME280;9226;47.858;9.594;2022-08-05T05:33:20;95042.38;;;25.13;57.12
18201;BME280;9226;47.858;9.594;2022-08-05T05:35:46;95046.09;;;25.18;57.01
18201;BME280;9226;47.858;9.594;2022-08-05T05:38:15;95045.75;;;25.33;56.74
18201;BME280;9226;47.858;9.594;2022-08-05T05:40:41;95056.00;;;25.50;56.39
18201;BME280;9226;47.858;9.594;2022-08-05T05:43:07;95058.53;;;25.63;55.81
18201;BME280;9226;47.858;9.594;2022-08-05T05:45:32;95056.59;;;25.70;56.37
18201;BME280;9226;47.858;9.594;2022-08-05T05:47:58;95072.25;;;25.87;56.38
18201;BME280;9226;47.858;9.594;2022-08-05T05:50:23;95066.22;;;26.03;55.96
18201;BME280;9226;47.858;9.594;2022-08-05T05:52:49;95068.13;;;26.14;55.97
18201;BME280;9226;47.858;9.594;2022-08-05T05:55:15;95067.22;;;26.21;55.12
18201;BME280;9226;47.858;9.594;2022-08-05T05:57:43;95072.38;;;26.52;54.45
18201;BME280;9226;47.858;9.594;2022-08-05T06:00:11;95075.63;;;27.44;55.31
18201;BME280;9226;47.858;9.594;2022-08-05T06:02:38;95078.56;;;28.52;53.42
18201;BME280;9226;47.858;9.594;2022-08-05T06:05:06;95086.09;;;29.69;50.18
18201;BME280;9226;47.858;9.594;2022-08-05T06:07:32;95083.69;;;31.04;47.86
18201;BME280;9226;47.858;9.594;2022-08-05T06:09:58;95093.13;;;32.19;44.45
18201;BME280;9226;47.858;9.594;2022-08-05T06:12:23;95102.31;;;33.07;40.04
18201;BME280;9226;47.858;9.594;2022-08-05T06:14:49;95113.53;;;33.83;38.71
18201;BME280;9226;47.858;9.594;2022-08-05T06:17:14;95117.16;;;34.38;36.91
18201;BME280;9226;47.858;9.594;2022-08-05T06:19:40;95122.13;;;34.36;36.24
18201;BME280;9226;47.858;9.594;2022-08-05T06:22:07;95130.41;;;34.31;36.06
18201;BME280;9226;47.858;9.594;2022-08-05T06:24:34;95128.38;;;33.82;36.29
18201;BME280;9226;47.858;9.594;2022-08-05T06:26:59;95126.22;;;33.53;35.82
18201;BME280;9226;47.858;9.594;2022-08-05T06:29:25;95140.00;;;33.22;36.24
18201;BME280;9226;47.858;9.594;2022-08-05T06:31:51;95135.03;;;32.88;36.26
18201;BME280;9226;47.858;9.594;2022-08-05T06:34:16;95148.75;;;32.78;36.46
18201;BME280;9226;47.858;9.594;2022-08-05T06:36:42;95143.97;;;32.37;37.10
18201;BME280;9226;47.858;9.594;2022-08-05T06:39:08;95151.16;;;32.59;36.92
18201;BME280;9226;47.858;9.594;2022-08-05T06:41:33;95163.63;;;33.28;37.19
18201;BME280;9226;47.858;9.594;2022-08-05T06:43:59;95176.81;;;33.67;35.85
18201;BME280;9226;47.858;9.594;2022-08-05T06:46:25;95172.81;;;34.35;33.32
18201;BME280;9226;47.858;9.594;2022-08-05T06:48:50;95181.00;;;35.01;33.36
18201;BME280;9226;47.858;9.594;2022-08-05T06:51:16;95176.31;;;35.01;32.12
18201;BME280;9226;47.858;9.594;2022-08-05T06:53:41;95177.31;;;35.15;32.27
18201;BME280;9226;47.858;9.594;2022-08-05T06:56:07;95195.31;;;35.42;33.46
18201;BME280;9226;47.858;9.594;2022-08-05T06:58:32;95198.53;;;35.55;32.64
18201;BME280;9226;47.858;9.594;2022-08-05T07:00:59;95203.75;;;35.27;32.25
18201;BME280;9226;47.858;9.594;2022-08-05T07:03:25;95208.03;;;35.73;32.87
18201;BME280;9226;47.858;9.594;2022-08-05T07:05:50;95201.91;;;36.34;31.13
18201;BME280;9226;47.858;9.594;2022-08-05T07:08:16;95208.38;;;37.11;30.10
18201;BME280;9226;47.858;9.594;2022-08-05T07:10:41;95215.81;;;37.68;28.80
18201;BME280;9226;47.858;9.594;2022-08-05T07:13:07;95211.38;;;37.66;28.18
18201;BME280;9226;47.858;9.594;2022-08-05T07:15:51;95223.16;;;38.24;27.73
18201;BME280;9226;47.858;9.594;2022-08-05T07:18:35;95225.59;;;38.95;26.96
18201;BME280;9226;47.858;9.594;2022-08-05T07:21:00;95223.94;;;39.08;26.77
18201;BME280;9226;47.858;9.594;2022-08-05T07:23:27;95222.09;;;38.89;26.28
18201;BME280;9226;47.858;9.594;2022-08-05T07:25:52;95228.19;;;39.28;26.18
18201;BME280;9226;47.858;9.594;2022-08-05T07:28:18;95227.84;;;39.66;26.31
18201;BME280;9226;47.858;9.594;2022-08-05T07:30:43;95228.47;;;39.63;25.94
18201;BME280;9226;47.858;9.594;2022-08-05T07:33:10;95228.94;;;39.06;25.86
18201;BME280;9226;47.858;9.594;2022-08-05T07:35:37;95228.63;;;39.80;25.40
18201;BME280;9226;47.858;9.594;2022-08-05T07:38:03;95224.06;;;39.85;25.42
18201;BME280;9226;47.858;9.594;2022-08-05T07:40:28;95224.88;;;38.76;26.03
18201;BME280;9226;47.858;9.594;2022-08-05T07:42:54;95228.94;;;39.20;25.97
18201;BME280;9226;47.858;9.594;2022-08-05T07:45:19;95235.88;;;39.31;26.12
18201;BME280;9226;47.858;9.594;2022-08-05T07:47:45;95242.81;;;39.20;25.59
18201;BME280;9226;47.858;9.594;2022-08-05T07:50:11;95251.91;;;39.34;26.05
18201;BME280;9226;47.858;9.594;2022-08-05T07:52:41;95247.59;;;39.28;25.67
18201;BME280;9226;47.858;9.594;2022-08-05T07:55:08;95253.31;;;39.45;26.08
18201;BME280;9226;47.858;9.594;2022-08-05T07:57:34;95258.03;;;39.08;26.54
18201;BME280;9226;47.858;9.594;2022-08-05T07:59:59;95262.50;;;39.32;26.21
18201;BME280;9226;47.858;9.594;2022-08-05T08:02:26;95265.72;;;39.62;26.19
18201;BME280;9226;47.858;9.594;2022-08-05T08:04:52;95266.88;;;38.97;26.78
18201;BME280;9226;47.858;9.594;2022-08-05T08:07:18;95256.97;;;39.32;26.48
18201;BME280;9226;47.858;9.594;2022-08-05T08:09:45;95264.81;;;39.02;26.51
18201;BME280;9226;47.858;9.594;2022-08-05T08:12:11;95273.56;;;38.68;26.71
18201;BME280;9226;47.858;9.594;2022-08-05T08:14:41;95270.91;;;38.90;26.77
18201;BME280;9226;47.858;9.594;2022-08-05T08:17:06;95282.63;;;38.87;26.76
18201;BME280;9226;47.858;9.594;2022-08-05T08:19:40;95281.78;;;38.87;26.46
18201;BME280;9226;47.858;9.594;2022-08-05T08:22:06;95275.63;;;38.62;26.53
18201;BME280;9226;47.858;9.594;2022-08-05T08:24:33;95279.34;;;38.71;26.53
18201;BME280;9226;47.858;9.594;2022-08-05T08:26:59;95289.34;;;38.40;27.11
18201;BME280;9226;47.858;9.594;2022-08-05T08:29:26;95284.66;;;37.74;27.18
18201;BME280;9226;47.858;9.594;2022-08-05T08:31:51;95294.97;;;36.39;28.22
18201;BME280;9226;47.858;9.594;2022-08-05T08:34:18;95294.56;;;36.51;28.82
18201;BME280;9226;47.858;9.594;2022-08-05T08:36:44;95297.50;;;35.66;29.01
18201;BME280;9226;47.858;9.594;2022-08-05T08:39:10;95297.56;;;35.11;29.81
18201;BME280;9226;47.858;9.594;2022-08-05T08:41:36;95294.63;;;35.42;29.17
18201;BME280;9226;47.858;9.594;2022-08-05T08:44:06;95295.84;;;35.21;29.89
18201;BME280;9226;47.858;9.594;2022-08-05T08:46:32;95290.16;;;35.51;29.84
18201;BME280;9226;47.858;9.594;2022-08-05T08:49:01;95296.53;;;35.47;29.73
18201;BME280;9226;47.858;9.594;2022-08-05T08:51:31;95287.19;;;34.88;30.49
18201;BME280;9226;47.858;9.594;2022-08-05T08:53:57;95299.03;;;35.43;30.49
18201;BME280;9226;47.858;9.594;2022-08-05T08:56:23;95301.44;;;35.95;29.70
18201;BME280;9226;47.858;9.594;2022-08-05T08:58:49;95298.50;;;36.15;29.60
18201;BME280;9226;47.858;9.594;2022-08-05T09:01:16;95296.03;;;36.14;29.03
18201;BME280;9226;47.858;9.594;2022-08-05T09:03:43;95289.56;;;37.20;28.91
18201;BME280;9226;47.858;9.594;2022-08-05T09:06:09;95297.22;;;37.28;28.39
18201;BME280;9226;47.858;9.594;2022-08-05T09:08:35;95285.22;;;37.90;28.11
18201;BME280;9226;47.858;9.594;2022-08-05T09:11:01;95283.03;;;37.68;27.96
18201;BME280;9226;47.858;9.594;2022-08-05T09:13:27;95283.91;;;38.34;26.44
18201;BME280;9226;47.858;9.594;2022-08-05T09:15:53;95285.81;;;38.67;26.38
18201;BME280;9226;47.858;9.594;2022-08-05T09:18:18;95279.47;;;38.19;26.49
18201;BME280;9226;47.858;9.594;2022-08-05T09:20:44;95286.31;;;38.08;26.09
18201;BME280;9226;47.858;9.594;2022-08-05T09:23:12;95285.63;;;36.83;26.81
18201;BME280;9226;47.858;9.594;2022-08-05T09:25:39;95290.03;;;36.36;27.18
18201;BME280;9226;47.858;9.594;2022-08-05T09:28:32;95287.34;;;36.26;28.04
18201;BME280;9226;47.858;9.594;2022-08-05T09:31:12;95295.13;;;36.48;27.51
18201;BME280;9226;47.858;9.594;2022-08-05T09:33:50;95294.03;;;36.49;27.36
18201;BME280;9226;47.858;9.594;2022-08-05T09:36:17;95280.63;;;36.61;27.30
18201;BME280;9226;47.858;9.594;2022-08-05T09:39:05;95291.09;;;36.88;26.49
18201;BME280;9226;47.858;9.594;2022-08-05T09:41:31;95284.53;;;37.03;26.24
18201;BME280;9226;47.858;9.594;2022-08-05T09:43:57;95285.03;;;37.29;26.56
18201;BME280;9226;47.858;9.594;2022-08-05T09:46:27;95284.13;;;37.53;26.27
18201;BME280;9226;47.858;9.594;2022-08-05T09:48:53;95288.50;;;37.16;26.34
18201;BME280;9226;47.858;9.594;2022-08-05T09:51:30;95273.84;;;36.97;26.39
18201;BME280;9226;47.858;9.594;2022-08-05T09:53:57;95279.50;;;37.29;26.38
18201;BME280;9226;47.858;9.594;2022-08-05T09:56:28;95274.63;;;37.92;26.38
18201;BME280;9226;47.858;9.594;2022-08-05T09:58:59;95271.28;;;38.56;25.41
18201;BME280;9226;47.858;9.594;2022-08-05T10:01:25;95274.75;;;38.20;24.82
18201;BME280;9226;47.858;9.594;2022-08-05T10:06:25;95270.50;;;38.09;25.39
18201;BME280;9226;47.858;9.594;2022-08-05T10:08:51;95265.22;;;38.26;25.27
18201;BME280;9226;47.858;9.594;2022-08-05T10:11:17;95265.47;;;38.71;25.52
18201;BME280;9226;47.858;9.594;2022-08-05T10:13:43;95256.38;;;38.38;25.25
18201;BME280;9226;47.858;9.594;2022-08-05T10:16:31;95257.13;;;37.45;25.43
18201;BME280;9226;47.858;9.594;2022-08-05T10:18:57;95256.06;;;38.40;25.51
18201;BME280;9226;47.858;9.594;2022-08-05T10:21:23;95250.25;;;38.27;25.04
18201;BME280;9226;47.858;9.594;2022-08-05T10:23:48;95249.03;;;38.75;24.60
18201;BME280;9226;47.858;9.594;2022-08-05T10:26:14;95247.03;;;39.03;24.51
18201;BME280;9226;47.858;9.594;2022-08-05T10:28:41;95242.44;;;38.71;24.94
18201;BME280;9226;47.858;9.594;2022-08-05T10:31:07;95244.69;;;38.55;24.84
18201;BME280;9226;47.858;9.594;2022-08-05T10:33:35;95245.38;;;37.72;25.30
18201;BME280;9226;47.858;9.594;2022-08-05T10:36:02;95233.34;;;37.06;26.15
18201;BME280;9226;47.858;9.594;2022-08-05T10:38:30;95236.81;;;36.25;27.10
18201;BME280;9226;47.858;9.594;2022-08-05T10:46:09;95239.88;;;36.48;27.61
18201;BME280;9226;47.858;9.594;2022-08-05T10:48:41;95227.00;;;36.38;27.51
18201;BME280;9226;47.858;9.594;2022-08-05T10:51:13;95231.19;;;36.60;27.28
18201;BME280;9226;47.858;9.594;2022-08-05T10:53:55;95226.94;;;36.43;26.31
18201;BME280;9226;47.858;9.594;2022-08-05T10:56:27;95233.94;;;36.60;26.37
18201;BME280;9226;47.858;9.594;2022-08-05T11:04:14;95221.06;;;36.50;27.17
18201;BME280;9226;47.858;9.594;2022-08-05T11:15:24;95214.84;;;36.39;27.62
18201;BME280;9226;47.858;9.594;2022-08-05T11:20:44;95208.81;;;36.56;26.78
18201;BME280;9226;47.858;9.594;2022-08-05T11:26:02;95196.47;;;36.00;27.46
18201;BME280;9226;47.858;9.594;2022-08-05T11:35:53;95203.00;;;35.50;27.80
18201;BME280;9226;47.858;9.594;2022-08-05T11:41:09;95202.88;;;35.61;27.82
18201;BME280;9226;47.858;9.594;2022-08-05T11:43:38;95191.84;;;35.61;27.77
18201;BME280;9226;47.858;9.594;2022-08-05T11:46:03;95190.00;;;35.51;28.33
18201;BME280;9226;47.858;9.594;2022-08-05T11:48:29;95182.00;;;35.15;28.41
18201;BME280;9226;47.858;9.594;2022-08-05T11:50:55;95179.91;;;35.41;28.66
18201;BME280;9226;47.858;9.594;2022-08-05T11:53:21;95175.72;;;35.44;29.42
18201;BME280;9226;47.858;9.594;2022-08-05T11:55:58;95173.44;;;35.17;28.94
18201;BME280;9226;47.858;9.594;2022-08-05T11:58:34;95173.16;;;35.53;28.11
18201;BME280;9226;47.858;9.594;2022-08-05T12:01:20;95166.22;;;35.60;28.65
18201;BME280;9226;47.858;9.594;2022-08-05T12:03:51;95165.50;;;35.74;28.13
18201;BME280;9226;47.858;9.594;2022-08-05T12:06:24;95169.13;;;35.74;29.41
18201;BME280;9226;47.858;9.594;2022-08-05T12:08:55;95177.28;;;35.21;29.13
18201;BME280;9226;47.858;9.594;2022-08-05T12:11:27;95170.16;;;35.14;29.16
18201;BME280;9226;47.858;9.594;2022-08-05T12:13:54;95163.19;;;35.22;29.07
18201;BME280;9226;47.858;9.594;2022-08-05T12:16:20;95159.94;;;34.75;30.06
18201;BME280;9226;47.858;9.594;2022-08-05T12:18:46;95177.16;;;34.47;29.57
18201;BME280;9226;47.858;9.594;2022-08-05T12:21:13;95175.50;;;34.46;29.86
18201;BME280;9226;47.858;9.594;2022-08-05T12:23:39;95163.97;;;34.38;29.60
18201;BME280;9226;47.858;9.594;2022-08-05T12:26:05;95164.59;;;34.30;29.89
18201;BME280;9226;47.858;9.594;2022-08-05T12:28:37;95165.66;;;34.19;29.83
18201;BME280;9226;47.858;9.594;2022-08-05T12:31:03;95158.03;;;33.95;31.00
18201;BME280;9226;47.858;9.594;2022-08-05T12:33:30;95156.13;;;33.96;30.99
18201;BME280;9226;47.858;9.594;2022-08-05T12:35:56;95146.50;;;33.93;30.91
18201;BME280;9226;47.858;9.594;2022-08-05T12:38:22;95154.19;;;34.01;30.49
18201;BME280;9226;47.858;9.594;2022-08-05T12:40:48;95153.63;;;34.04;30.65
18201;BME280;9226;47.858;9.594;2022-08-05T12:43:14;95148.09;;;34.15;30.75
18201;BME280;9226;47.858;9.594;2022-08-05T12:45:53;95144.22;;;34.21;30.29
18201;BME280;9226;47.858;9.594;2022-08-05T12:48:20;95134.25;;;34.35;29.96
18201;BME280;9226;47.858;9.594;2022-08-05T12:51:10;95138.50;;;34.62;29.81
18201;BME280;9226;47.858;9.594;2022-08-05T12:53:43;95138.56;;;34.52;30.58
18201;BME280;9226;47.858;9.594;2022-08-05T12:56:39;95131.00;;;34.18;30.23
18201;BME280;9226;47.858;9.594;2022-08-05T12:59:20;95134.56;;;34.23;30.23
18201;BME280;9226;47.858;9.594;2022-08-05T13:01:53;95128.84;;;34.10;29.98
18201;BME280;9226;47.858;9.594;2022-08-05T13:04:26;95128.78;;;34.30;29.98
18201;BME280;9226;47.858;9.594;2022-08-05T13:06:55;95126.81;;;34.36;30.56
18201;BME280;9226;47.858;9.594;2022-08-05T13:09:21;95131.25;;;34.32;30.04
18201;BME280;9226;47.858;9.594;2022-08-05T13:11:47;95117.09;;;34.49;30.09
18201;BME280;9226;47.858;9.594;2022-08-05T13:14:18;95110.50;;;34.50;29.97
18201;BME280;9226;47.858;9.594;2022-08-05T13:16:55;95115.84;;;34.25;30.76
18201;BME280;9226;47.858;9.594;2022-08-05T13:19:23;95106.19;;;34.28;30.42
18201;BME280;9226;47.858;9.594;2022-08-05T13:21:49;95109.78;;;34.29;30.37
18201;BME280;9226;47.858;9.594;2022-08-05T13:24:15;95097.94;;;34.28;31.09
18201;BME280;9226;47.858;9.594;2022-08-05T13:26:45;95099.50;;;34.39;30.54
18201;BME280;9226;47.858;9.594;2022-08-05T13:29:12;95090.81;;;34.27;30.44
18201;BME280;9226;47.858;9.594;2022-08-05T13:31:38;95100.41;;;34.30;30.50
18201;BME280;9226;47.858;9.594;2022-08-05T13:34:04;95087.81;;;34.63;30.47
18201;BME280;9226;47.858;9.594;2022-08-05T13:36:30;95081.13;;;34.79;30.46
18201;BME280;9226;47.858;9.594;2022-08-05T13:38:55;95093.69;;;34.91;30.56
18201;BME280;9226;47.858;9.594;2022-08-05T13:41:21;95089.44;;;34.74;30.34
18201;BME280;9226;47.858;9.594;2022-08-05T13:43:46;95079.16;;;34.80;29.70
18201;BME280;9226;47.858;9.594;2022-08-05T13:46:12;95086.34;;;34.81;30.17
18201;BME280;9226;47.858;9.594;2022-08-05T13:48:38;95086.31;;;34.36;30.47
18201;BME280;9226;47.858;9.594;2022-08-05T13:51:08;95078.41;;;34.19;29.96
18201;BME280;9226;47.858;9.594;2022-08-05T13:53:34;95072.53;;;34.41;29.39
18201;BME280;9226;47.858;9.594;2022-08-05T13:56:00;95071.50;;;34.22;29.36
18201;BME280;9226;47.858;9.594;2022-08-05T13:58:26;95071.50;;;34.32;29.18
18201;BME280;9226;47.858;9.594;2022-08-05T14:00:52;95073.72;;;34.30;29.36
18201;BME280;9226;47.858;9.594;2022-08-05T14:03:18;95067.06;;;34.31;29.25
18201;BME280;9226;47.858;9.594;2022-08-05T14:05:43;95073.28;;;33.92;29.27